Archival Weather

Republic

Farmingdale, New York (KFRG)

Report from: Sunday, February 18, 2024 5:53 PM EST
Current time: Monday, June 24, 2024 5:16 AM EDT

Current weather – Weather history – Daily summaries
Weather forecast

Temperature3.3°C (37.9°F)
Wind chill-0.6°C (30.9°F)
Dew point-8.9°C (16.0°F)
Winds 9 kts (4.6 m/s, 10.4 mph) West (260°)
Visibility10 mi. (16.1 km)
Clouds Sky clear
Altimeter29.80 in.Hg (1009 mB)
Relative humidity40 %
Density altitude-1,227 ft. (-374 m)
Sea-level pressure100.9 kPa (1009 mB, 29.80 in.Hg)
Remarks Automated weather observing station without precipitation discriminator
Flight conditions Visual Meteorological Conditions
Raw dataKFRG 182253Z 26009KT 10SM CLR 03/M09 A2980 RMK AO1 SLP092 T00331089
An error has occurred. This application may no longer respond until reloaded. Reload 🗙